Time;durP1;ratioP1;P1;durP2;ratioP2;P2;SDS_P1;SDS_P2;PMS_P1;PMS_P2;Temp;Humidity;BMP_temperature;BMP_pressure;BME280_temperature;BME280_humidity;BME280_pressure;Samples;Min_cycle;Max_cycle;Signal;HPM_P1;HPM_P2
2023/09/28 00:00:42;;;;;;;32.00;30.35;;;;;;;11.72;100.00;101435.84;5032733;28;20053;-75
2023/09/28 00:03:09;;;;;;;28.45;26.95;;;;;;;12.07;100.00;101434.84;5025635;28;20060;-75
2023/09/28 00:05:38;;;;;;;30.08;28.58;;;;;;;12.28;100.00;101433.88;5031832;28;20052;-75
2023/09/28 00:08:08;;;;;;;33.30;31.60;;;;;;;11.82;100.00;101436.31;5022091;28;20050;-75
2023/09/28 00:10:35;;;;;;;30.55;29.00;;;;;;;12.00;100.00;101441.97;5031840;28;20049;-76
2023/09/28 00:13:01;;;;;;;32.33;30.63;;;;;;;11.80;100.00;101439.19;5032007;28;20530;-75
2023/09/28 00:15:27;;;;;;;42.67;40.53;;;;;;;11.91;100.00;101441.31;5031468;28;20049;-75
2023/09/28 00:17:54;;;;;;;49.10;46.90;;;;;;;12.40;100.00;101444.78;5029990;28;20490;-75
2023/09/28 00:20:22;;;;;;;50.47;47.72;;;;;;;11.76;100.00;101439.75;5031907;28;20077;-76
2023/09/28 00:22:51;;;;;;;56.97;54.38;;;;;;;12.17;100.00;101438.97;5031748;28;20045;-75
2023/09/28 00:25:19;;;;;;;56.05;53.42;;;;;;;12.18;100.00;101437.97;5036262;28;20513;-75
2023/09/28 00:27:48;;;;;;;61.70;58.90;;;;;;;11.88;100.00;101447.03;5051680;28;20130;-75
2023/09/28 00:30:18;;;;;;;55.05;52.40;;;;;;;12.05;100.00;101449.38;5051754;28;20061;-75
2023/09/28 00:32:51;;;;;;;28.85;27.45;;;;;;;12.14;100.00;101454.34;5045264;28;20053;-75
2023/09/28 00:35:26;;;;;;;28.48;27.08;;;;;;;12.17;100.00;101441.66;5051115;28;20045;-73
2023/09/28 00:37:53;;;;;;;35.92;34.22;;;;;;;12.23;100.00;101449.66;5051704;28;20479;-73
2023/09/28 00:40:27;;;;;;;35.00;33.30;;;;;;;12.19;100.00;101439.59;5051923;28;20052;-75
2023/09/28 00:42:56;;;;;;;39.25;37.20;;;;;;;12.41;100.00;101441.13;5040086;28;20099;-74
2023/09/28 00:45:23;;;;;;;35.60;33.80;;;;;;;11.96;100.00;101440.72;5047971;28;20045;-74
2023/09/28 00:47:52;;;;;;;29.80;28.20;;;;;;;11.86;100.00;101449.09;5048492;28;20522;-74
2023/09/28 00:50:20;;;;;;;37.10;35.22;;;;;;;11.70;100.00;101447.50;5051628;28;20068;-74
2023/09/28 00:52:52;;;;;;;34.08;32.38;;;;;;;11.95;100.00;101444.38;5049048;28;20957;-73
2023/09/28 00:55:24;;;;;;;32.03;30.42;;;;;;;11.84;100.00;101447.59;5048668;28;20099;-73
2023/09/28 00:57:51;;;;;;;30.63;29.13;;;;;;;11.46;100.00;101453.28;5041029;28;20052;-74
2023/09/28 01:00:18;;;;;;;31.98;30.38;;;;;;;11.86;100.00;101448.22;5050843;28;20056;-73
2023/09/28 01:02:45;;;;;;;31.65;30.05;;;;;;;11.53;100.00;101454.16;5046452;28;20052;-73
2023/09/28 01:05:13;;;;;;;34.95;33.25;;;;;;;10.92;100.00;101446.72;5046738;28;20510;-73
2023/09/28 01:07:40;;;;;;;36.13;34.30;;;;;;;11.46;100.00;101447.97;5040345;28;20045;-73
2023/09/28 01:10:13;;;;;;;32.78;31.10;;;;;;;11.56;100.00;101447.59;5049664;28;20044;-73
2023/09/28 01:12:41;;;;;;;33.53;31.83;;;;;;;11.44;100.00;101442.03;5047813;28;20045;-74
2023/09/28 01:15:12;;;;;;;34.97;33.17;;;;;;;11.48;100.00;101453.09;5050300;28;20056;-73
2023/09/28 01:17:39;;;;;;;31.02;29.23;;;;;;;11.43;100.00;101449.16;5040630;28;20041;-74
2023/09/28 01:20:17;;;;;;;32.45;30.80;;;;;;;10.73;100.00;101458.78;5043068;28;20045;-73
2023/09/28 01:22:45;;;;;;;33.60;31.60;;;;;;;11.65;100.00;101457.09;5045056;28;20053;-74
2023/09/28 01:25:15;;;;;;;36.38;33.70;;;;;;;11.72;100.00;101451.81;5042233;28;20050;-73
2023/09/28 01:27:44;;;;;;;34.55;32.75;;;;;;;11.56;100.00;101453.78;5021786;28;20202;-73
2023/09/28 01:30:12;;;;;;;33.20;31.60;;;;;;;11.63;100.00;101457.28;5016585;28;20054;-73
2023/09/28 01:32:38;;;;;;;32.33;30.73;;;;;;;11.50;100.00;101453.69;5024699;28;20099;-73
2023/09/28 01:35:06;;;;;;;34.97;33.28;;;;;;;11.27;100.00;101448.63;5012831;28;20041;-74
2023/09/28 01:37:45;;;;;;;37.35;35.45;;;;;;;11.31;100.00;101445.38;5025122;28;20073;-73
2023/09/28 01:40:15;;;;;;;34.42;32.72;;;;;;;11.11;100.00;101447.09;5024255;28;20088;-75
2023/09/28 01:42:41;;;;;;;33.15;31.45;;;;;;;11.58;100.00;101442.94;5023839;28;20140;-73
2023/09/28 01:45:11;;;;;;;35.70;34.00;;;;;;;11.47;100.00;101446.97;5021402;28;20272;-74
2023/09/28 01:47:40;;;;;;;36.50;34.70;;;;;;;11.59;100.00;101448.06;5028104;28;20057;-73
2023/09/28 01:50:07;;;;;;;37.20;35.40;;;;;;;11.51;100.00;101445.53;5017372;28;20065;-73
2023/09/28 01:52:33;;;;;;;40.08;38.17;;;;;;;11.27;100.00;101440.66;5030796;28;20045;-73
2023/09/28 01:55:01;;;;;;;35.45;33.30;;;;;;;11.15;100.00;101443.84;5021127;28;20415;-73
2023/09/28 01:57:37;;;;;;;33.10;31.50;;;;;;;11.40;100.00;101451.38;5025757;28;20053;-73
2023/09/28 02:00:08;;;;;;;36.03;34.13;;;;;;;10.95;100.00;101442.84;5027798;28;20049;-73
2023/09/28 02:02:34;;;;;;;37.65;35.75;;;;;;;11.18;100.00;101450.63;5027007;28;20052;-74
2023/09/28 02:05:02;;;;;;;39.50;37.60;;;;;;;11.27;100.00;101443.31;5026397;28;20045;-75
2023/09/28 02:07:28;;;;;;;38.55;36.72;;;;;;;10.61;100.00;101447.00;5028388;28;20047;-75
2023/09/28 02:09:55;;;;;;;49.20;46.92;;;;;;;10.94;100.00;101446.50;5022346;28;20124;-75
2023/09/28 02:12:21;;;;;;;63.17;39.65;;;;;;;11.25;100.00;101443.50;5019915;28;20100;-75
2023/09/28 02:14:49;;;;;;;43.22;41.33;;;;;;;11.21;100.00;101444.91;5011990;28;20053;-73
2023/09/28 02:17:15;;;;;;;45.55;43.55;;;;;;;11.08;100.00;101442.16;5027714;28;20041;-74
2023/09/28 02:19:42;;;;;;;41.30;39.50;;;;;;;11.21;100.00;101437.75;5028781;28;20119;-75
2023/09/28 02:22:09;;;;;;;38.90;36.97;;;;;;;11.27;100.00;101440.66;5025729;28;20053;-75
2023/09/28 02:24:37;;;;;;;54.70;52.38;;;;;;;10.78;100.00;101436.97;5023699;28;20050;-75
2023/09/28 02:27:03;;;;;;;44.50;42.50;;;;;;;10.45;100.00;101434.78;5030877;28;20037;-76
2023/09/28 02:29:36;;;;;;;41.85;39.95;;;;;;;10.56;100.00;101436.13;5030169;28;20049;-75
2023/09/28 02:32:13;;;;;;;43.63;41.72;;;;;;;11.18;100.00;101434.66;5029835;28;20049;-75
2023/09/28 02:34:42;;;;;;;41.55;39.80;;;;;;;10.53;100.00;101437.34;5025032;28;20049;-75
2023/09/28 02:37:10;;;;;;;47.35;45.38;;;;;;;10.66;100.00;101441.13;5029844;28;20046;-75
2023/09/28 02:39:43;;;;;;;48.13;46.03;;;;;;;11.11;100.00;101445.25;5021438;28;20049;-75
2023/09/28 02:42:16;;;;;;;50.30;48.10;;;;;;;10.64;100.00;101440.50;5030335;28;20487;-75
2023/09/28 02:44:44;;;;;;;41.95;40.15;;;;;;;10.89;100.00;101443.59;5029789;28;20054;-75
2023/09/28 02:47:10;;;;;;;42.97;41.17;;;;;;;11.07;100.00;101441.31;5018908;28;20104;-76
2023/09/28 02:49:38;;;;;;;43.67;41.85;;;;;;;10.85;100.00;101443.16;5029886;28;20056;-75
2023/09/28 02:52:06;;;;;;;38.75;37.05;;;;;;;11.01;100.00;101442.06;5022844;28;20045;-74
2023/09/28 02:54:33;;;;;;;42.35;40.53;;;;;;;10.96;100.00;101447.16;5028896;28;20084;-74
2023/09/28 02:56:58;;;;;;;44.97;43.08;;;;;;;10.71;100.00;101452.84;5029498;28;20041;-73
2023/09/28 02:59:27;;;;;;;48.60;46.30;;;;;;;10.79;100.00;101441.25;5029994;28;20511;-75
2023/09/28 03:01:55;;;;;;;42.75;40.95;;;;;;;10.77;100.00;101452.09;5029486;28;20084;-75
2023/09/28 03:04:24;;;;;;;40.17;38.47;;;;;;;10.77;100.00;101446.78;5027254;28;20092;-76
2023/09/28 03:06:54;;;;;;;35.42;33.83;;;;;;;10.85;100.00;101451.13;5029838;28;20491;-75
2023/09/28 03:09:21;;;;;;;53.00;50.80;;;;;;;10.71;100.00;101444.88;5025063;28;20441;-75
2023/09/28 03:11:47;;;;;;;47.33;45.22;;;;;;;10.59;100.00;101449.03;5029412;28;20053;-75
2023/09/28 03:14:14;;;;;;;53.00;50.60;;;;;;;10.61;100.00;101454.97;5029269;28;20487;-75
2023/09/28 03:16:40;;;;;;;54.97;52.58;;;;;;;10.57;100.00;101450.25;5030238;28;20060;-75
2023/09/28 03:19:09;;;;;;;43.13;41.22;;;;;;;10.82;100.00;101446.19;5029764;28;20041;-74
2023/09/28 03:21:35;;;;;;;45.10;42.72;;;;;;;10.75;100.00;101459.41;5029481;28;20103;-75
2023/09/28 03:24:12;;;;;;;48.00;44.72;;;;;;;10.81;100.00;101452.53;5029336;28;20499;-75
2023/09/28 03:26:38;;;;;;;45.83;42.85;;;;;;;10.66;100.00;101454.41;5047860;28;20119;-75
2023/09/28 03:29:33;;;;;;;49.15;46.20;;;;;;;10.54;100.00;101460.22;5052026;28;20057;-75
2023/09/28 03:31:59;;;;;;;41.58;38.88;;;;;;;10.75;100.00;101464.72;5016686;28;20048;-75
2023/09/28 03:34:26;;;;;;;34.00;31.50;;;;;;;10.01;100.00;101464.84;5061491;28;20048;-76
2023/09/28 03:36:53;;;;;;;35.70;33.10;;;;;;;10.54;100.00;101459.41;5063498;28;20048;-76
2023/09/28 03:39:22;;;;;;;51.63;48.13;;;;;;;10.70;100.00;101463.66;5056411;28;20450;-75
2023/09/28 03:41:57;;;;;;;45.70;42.30;;;;;;;10.80;100.00;101461.50;5057495;28;20063;-75
2023/09/28 03:44:24;;;;;;;46.17;42.47;;;;;;;10.60;100.00;101463.97;5054991;28;20061;-75
2023/09/28 03:46:50;;;;;;;33.53;30.73;;;;;;;10.77;100.00;101460.06;5045714;28;20136;-75
2023/09/28 03:49:18;;;;;;;35.58;32.70;;;;;;;10.82;100.00;101470.09;5053290;28;20110;-75
2023/09/28 03:51:44;;;;;;;45.03;41.75;;;;;;;10.70;100.00;101467.13;5052955;28;20049;-75
2023/09/28 03:54:26;;;;;;;54.17;49.25;;;;;;;10.63;100.00;101468.09;5053546;28;20045;-75
2023/09/28 03:56:52;;;;;;;59.97;56.17;;;;;;;10.51;100.00;101473.06;5059263;28;20064;-75
2023/09/28 03:59:19;;;;;;;45.08;42.17;;;;;;;10.51;100.00;101468.56;5053143;28;20049;-74
2023/09/28 04:01:46;;;;;;;40.53;37.42;;;;;;;10.71;100.00;101471.44;5046611;28;20438;-74
2023/09/28 04:04:13;;;;;;;48.63;45.00;;;;;;;10.69;100.00;101478.78;5058510;28;20133;-73
2023/09/28 04:06:40;;;;;;;46.83;43.53;;;;;;;10.31;100.00;101486.91;5057424;28;20056;-72
2023/09/28 04:09:07;;;;;;;41.22;38.13;;;;;;;10.49;100.00;101493.66;5049912;28;20049;-72
2023/09/28 04:11:37;;;;;;;33.30;30.10;;;;;;;10.02;100.00;101501.00;5053868;28;20045;-73
2023/09/28 04:14:07;;;;;;;24.95;23.45;;;;;;;9.49;100.00;101491.41;5055126;28;20166;-73
2023/09/28 04:16:34;;;;;;;26.42;25.02;;;;;;;10.23;100.00;101499.44;5053561;28;20072;-73
2023/09/28 04:19:01;;;;;;;28.27;26.65;;;;;;;10.48;100.00;101502.66;5052541;28;20513;-73
2023/09/28 04:21:29;;;;;;;25.35;24.02;;;;;;;10.25;100.00;101492.09;5049314;28;20052;-73
2023/09/28 04:23:55;;;;;;;20.00;18.80;;;;;;;10.05;100.00;101492.66;5050160;28;20124;-72
2023/09/28 04:26:22;;;;;;;20.70;19.50;;;;;;;10.46;100.00;101494.03;5047549;28;20057;-72
2023/09/28 04:28:50;;;;;;;20.23;19.02;;;;;;;10.78;100.00;101492.78;5028893;28;21128;-73
2023/09/28 04:31:18;;;;;;;20.55;19.35;;;;;;;10.45;100.00;101501.19;5027684;28;20061;-73
2023/09/28 04:33:45;;;;;;;18.42;17.33;;;;;;;10.42;100.00;101498.91;5029912;28;20046;-71
2023/09/28 04:36:12;;;;;;;21.85;20.45;;;;;;;10.12;100.00;101499.91;5029069;28;20053;-71
2023/09/28 04:38:40;;;;;;;21.52;20.23;;;;;;;10.90;100.00;101503.72;5029949;28;20202;-73
2023/09/28 04:41:07;;;;;;;20.35;19.15;;;;;;;11.25;100.00;101502.00;5028456;28;20049;-73
2023/09/28 04:43:34;;;;;;;23.00;21.58;;;;;;;10.93;100.00;101506.00;5029015;28;20526;-71
2023/09/28 04:46:06;;;;;;;19.95;18.75;;;;;;;10.73;100.00;101511.09;5030285;28;20132;-71
2023/09/28 04:48:33;;;;;;;19.45;18.35;;;;;;;10.57;100.00;101519.31;5030177;28;20085;-71
2023/09/28 04:51:00;;;;;;;19.65;18.55;;;;;;;10.66;100.00;101512.88;5030319;28;20057;-71
2023/09/28 04:53:27;;;;;;;22.70;21.42;;;;;;;10.89;100.00;101510.88;5026788;28;20056;-71
2023/09/28 04:55:54;;;;;;;26.90;25.40;;;;;;;11.01;100.00;101519.16;5030180;28;20053;-71
2023/09/28 04:58:21;;;;;;;31.95;29.58;;;;;;;11.43;100.00;101515.66;5024429;28;20064;-71
2023/09/28 05:00:47;;;;;;;27.75;26.15;;;;;;;11.63;100.00;101520.34;5027206;28;20064;-75
2023/09/28 05:03:16;;;;;;;28.85;27.25;;;;;;;11.80;100.00;101520.84;5026970;28;20422;-73
2023/09/28 05:05:43;;;;;;;25.17;23.77;;;;;;;11.86;100.00;101528.94;5025155;28;20128;-74
2023/09/28 05:08:10;;;;;;;23.75;22.50;;;;;;;11.85;100.00;101534.44;5026036;28;20107;-74
2023/09/28 05:10:37;;;;;;;26.02;24.52;;;;;;;11.98;100.00;101539.03;5023768;28;20053;-74
2023/09/28 05:13:04;;;;;;;23.58;22.20;;;;;;;11.93;100.00;101536.13;5026908;28;20045;-74
2023/09/28 05:15:31;;;;;;;25.27;23.85;;;;;;;11.78;100.00;101538.88;5028041;28;20442;-74
2023/09/28 05:17:59;;;;;;;25.05;23.65;;;;;;;11.79;100.00;101538.66;5026164;28;20527;-74
2023/09/28 05:20:27;;;;;;;23.15;21.75;;;;;;;12.06;100.00;101541.53;5027657;28;20485;-74
2023/09/28 05:22:54;;;;;;;23.50;22.05;;;;;;;12.36;100.00;101550.94;5023812;28;20461;-74
2023/09/28 05:25:21;;;;;;;23.50;22.00;;;;;;;21.32;100.00;101528.38;5027822;28;20513;-76
2023/09/28 05:27:48;;;;;;;22.83;21.33;;;;;;;22.71;100.00;101528.06;5025661;28;20137;-76
2023/09/28 05:30:15;;;;;;;24.23;22.52;;;;;;;23.24;100.00;101528.69;5024759;28;20052;-76
2023/09/28 05:32:42;;;;;;;22.27;20.88;;;;;;;17.03;100.00;101543.31;5026959;28;20060;-75
2023/09/28 05:35:10;;;;;;;20.73;19.33;;;;;;;14.21;100.00;101556.72;5023080;28;20257;-74
2023/09/28 05:37:38;;;;;;;20.63;19.33;;;;;;;12.97;100.00;101565.31;5026815;28;20068;-74
2023/09/28 05:40:06;;;;;;;22.77;20.92;;;;;;;13.38;100.00;101559.06;5024486;28;20050;-74
2023/09/28 05:42:34;;;;;;;24.15;22.65;;;;;;;13.61;100.00;101554.13;5027750;28;20061;-74
2023/09/28 05:45:01;;;;;;;23.40;21.90;;;;;;;13.79;100.00;101566.03;5020904;28;20046;-74
2023/09/28 05:47:28;;;;;;;23.63;22.13;;;;;;;13.95;100.00;101552.28;5025287;28;20485;-74
2023/09/28 05:49:58;;;;;;;22.77;21.35;;;;;;;14.20;100.00;101547.91;5028422;28;20057;-74
2023/09/28 05:52:25;;;;;;;22.27;20.98;;;;;;;14.40;100.00;101547.84;5028049;28;20041;-74
2023/09/28 05:54:53;;;;;;;23.83;22.33;;;;;;;14.79;100.00;101547.91;5026437;28;20045;-74
2023/09/28 05:57:22;;;;;;;21.95;20.65;;;;;;;15.09;100.00;101537.44;5029139;28;20054;-74
2023/09/28 05:59:49;;;;;;;23.63;22.08;;;;;;;15.17;100.00;101549.75;5027161;28;20130;-74
2023/09/28 06:02:16;;;;;;;23.50;21.75;;;;;;;15.50;100.00;101541.50;5027736;28;20454;-74
2023/09/28 06:04:43;;;;;;;23.30;21.70;;;;;;;15.77;100.00;101550.97;5027043;28;20053;-74
2023/09/28 06:07:11;;;;;;;23.23;21.70;;;;;;;15.76;100.00;101540.47;5025193;28;20046;-74
2023/09/28 06:09:37;;;;;;;24.63;23.13;;;;;;;15.98;100.00;101546.25;5018659;28;20115;-75
2023/09/28 06:12:07;;;;;;;26.75;24.17;;;;;;;16.18;100.00;101552.19;5025973;28;20508;-75
2023/09/28 06:14:34;;;;;;;25.67;24.17;;;;;;;16.16;100.00;101554.28;5026453;28;20456;-74
2023/09/28 06:17:01;;;;;;;23.92;22.52;;;;;;;16.24;100.00;101555.84;5025215;28;20091;-74
2023/09/28 06:19:28;;;;;;;23.23;21.92;;;;;;;16.48;100.00;101554.94;5027154;28;20068;-75
2023/09/28 06:21:55;;;;;;;23.80;22.15;;;;;;;16.54;100.00;101555.91;5027680;28;20045;-74
2023/09/28 06:24:22;;;;;;;22.80;21.35;;;;;;;16.67;100.00;101557.59;5027607;28;20133;-74
2023/09/28 06:26:50;;;;;;;21.83;20.52;;;;;;;16.69;100.00;101555.53;5027207;28;20053;-75
2023/09/28 06:29:18;;;;;;;21.63;20.33;;;;;;;16.91;100.00;101563.91;5031474;28;20053;-74
2023/09/28 06:31:45;;;;;;;22.35;21.05;;;;;;;17.33;100.00;101563.94;5028850;28;20076;-75
2023/09/28 06:34:12;;;;;;;19.23;18.13;;;;;;;17.60;100.00;101565.16;5026498;28;20053;-74
2023/09/28 06:36:38;;;;;;;21.52;20.23;;;;;;;17.55;100.00;101565.06;5024809;28;20045;-74
2023/09/28 06:39:06;;;;;;;22.13;20.83;;;;;;;18.02;100.00;101556.19;5028473;28;20238;-75
2023/09/28 06:41:32;;;;;;;21.65;20.45;;;;;;;18.35;100.00;101560.94;5025888;28;20042;-75
2023/09/28 06:43:59;;;;;;;23.35;22.10;;;;;;;20.99;100.00;101549.16;5025054;28;20618;-79
2023/09/28 06:46:28;;;;;;;23.50;22.08;;;;;;;20.07;100.00;101552.66;5025602;28;20133;-74
2023/09/28 06:48:55;;;;;;;23.15;21.77;;;;;;;19.52;100.00;101559.63;5026750;28;20097;-75
2023/09/28 06:51:22;;;;;;;26.63;23.98;;;;;;;19.87;100.00;101553.19;5027086;28;20483;-75
2023/09/28 06:53:49;;;;;;;24.23;22.73;;;;;;;19.49;100.00;101557.44;5025626;28;20053;-75
2023/09/28 06:56:16;;;;;;;24.20;22.70;;;;;;;19.47;100.00;101554.16;5025642;28;20052;-75
2023/09/28 06:58:42;;;;;;;24.60;23.02;;;;;;;20.17;100.00;101551.97;5021795;28;20049;-75
2023/09/28 07:01:09;;;;;;;23.15;21.65;;;;;;;20.13;100.00;101551.66;5022920;28;20057;-75
2023/09/28 07:03:38;;;;;;;23.67;22.17;;;;;;;20.27;100.00;101546.69;5024009;28;20050;-74
2023/09/28 07:06:05;;;;;;;24.75;23.25;;;;;;;20.58;100.00;101550.63;5028136;28;20521;-74
2023/09/28 07:08:35;;;;;;;23.98;22.48;;;;;;;20.41;100.00;101547.97;5029919;28;20112;-75
2023/09/28 07:11:02;;;;;;;40.80;23.15;;;;;;;20.83;100.00;101546.56;5024541;28;20498;-75
2023/09/28 07:13:30;;;;;;;25.75;24.15;;;;;;;21.14;100.00;101551.19;5030726;28;20133;-75
2023/09/28 07:15:57;;;;;;;25.65;24.05;;;;;;;21.48;100.00;101541.00;5028325;28;20152;-75
2023/09/28 07:18:25;;;;;;;27.35;25.70;;;;;;;21.94;100.00;101541.28;5030617;28;20492;-75
2023/09/28 07:20:55;;;;;;;28.05;26.35;;;;;;;22.02;100.00;101539.94;5029642;28;20077;-74
2023/09/28 07:23:23;;;;;;;26.42;24.73;;;;;;;21.90;100.00;101542.84;5030727;28;20120;-75
2023/09/28 07:25:50;;;;;;;27.83;24.95;;;;;;;22.00;100.00;101544.81;5031260;28;20061;-74
2023/09/28 07:28:17;;;;;;;25.40;23.80;;;;;;;22.17;100.00;101539.25;5051776;28;20133;-75
2023/09/28 07:30:44;;;;;;;23.30;21.90;;;;;;;22.46;100.00;101539.66;5055372;28;20143;-74
2023/09/28 07:33:13;;;;;;;23.92;22.52;;;;;;;22.85;100.00;101531.09;5054666;28;20529;-75
2023/09/28 07:35:43;;;;;;;28.17;26.58;;;;;;;23.15;100.00;101533.03;5052735;28;20047;-75
2023/09/28 07:38:11;;;;;;;25.75;24.25;;;;;;;23.01;100.00;101534.66;5048481;28;20052;-75
2023/09/28 07:40:38;;;;;;;26.30;24.73;;;;;;;23.34;100.00;101527.06;5056690;28;20071;-75
2023/09/28 07:43:05;;;;;;;23.33;21.90;;;;;;;23.83;100.00;101529.19;5062005;28;20520;-75
2023/09/28 07:45:32;;;;;;;23.27;21.77;;;;;;;24.55;100.00;101529.75;5057599;28;20061;-74
2023/09/28 07:47:59;;;;;;;22.88;21.48;;;;;;;24.71;100.00;101528.56;5053763;28;20482;-75
2023/09/28 07:50:26;;;;;;;23.83;22.42;;;;;;;23.62;100.00;101531.09;5057389;28;20053;-76
2023/09/28 07:52:52;;;;;;;22.00;20.58;;;;;;;23.37;100.00;101529.25;5056470;28;20059;-73
2023/09/28 07:55:23;;;;;;;23.70;22.00;;;;;;;22.79;100.00;101524.03;5056594;28;20055;-73
2023/09/28 07:57:50;;;;;;;24.42;22.73;;;;;;;23.89;100.00;101534.31;5049908;28;20783;-72
2023/09/28 08:00:18;;;;;;;24.15;22.60;;;;;;;24.50;100.00;101527.06;5052073;28;20052;-73
2023/09/28 08:02:45;;;;;;;22.20;20.70;;;;;;;24.88;100.00;101533.63;5044194;28;20418;-74
2023/09/28 08:05:12;;;;;;;25.85;24.33;;;;;;;25.13;100.00;101527.22;5055462;28;20053;-73
2023/09/28 08:07:40;;;;;;;24.20;22.60;;;;;;;25.21;100.00;101532.03;5044760;28;20041;-73
2023/09/28 08:10:09;;;;;;;23.95;22.45;;;;;;;25.00;100.00;101525.13;5041961;28;20049;-73
2023/09/28 08:12:37;;;;;;;25.50;23.88;;;;;;;25.38;100.00;101528.88;5046763;28;20052;-73
2023/09/28 08:15:05;;;;;;;24.52;22.92;;;;;;;25.88;100.00;101517.81;5051690;28;20052;-73
2023/09/28 08:17:33;;;;;;;22.30;20.90;;;;;;;26.32;100.00;101522.97;5054211;28;20048;-73
2023/09/28 08:20:00;;;;;;;18.58;17.27;;;;;;;25.78;99.33;101524.13;5054922;28;20128;-72
2023/09/28 08:22:27;;;;;;;22.20;20.60;;;;;;;26.52;100.00;101515.69;5054885;28;20045;-73
2023/09/28 08:24:54;;;;;;;20.45;19.15;;;;;;;26.60;97.81;101515.03;5050360;28;20045;-72
2023/09/28 08:27:21;;;;;;;22.40;20.80;;;;;;;26.25;98.07;101511.63;5053398;28;20513;-73
2023/09/28 08:29:49;;;;;;;24.17;21.73;;;;;;;26.13;100.00;101519.41;5049051;28;20048;-73
2023/09/28 08:32:16;;;;;;;23.63;22.13;;;;;;;26.85;100.00;101511.09;5052458;28;20052;-75
2023/09/28 08:34:43;;;;;;;24.33;22.83;;;;;;;27.49;87.39;101514.13;5050953;28;20049;-73
2023/09/28 08:37:10;;;;;;;24.90;23.30;;;;;;;26.39;95.39;101515.28;5052770;28;20040;-72
2023/09/28 08:39:38;;;;;;;26.48;24.77;;;;;;;27.30;85.64;101517.75;5051328;28;20124;-73
2023/09/28 08:42:12;;;;;;;25.10;23.60;;;;;;;27.94;77.82;101503.47;5057541;28;20052;-73
2023/09/28 08:44:39;;;;;;;25.38;23.58;;;;;;;27.45;79.72;101511.22;5056491;28;20049;-73
2023/09/28 08:47:15;;;;;;;22.88;21.27;;;;;;;28.34;77.54;101507.25;5056151;28;20403;-72
2023/09/28 08:49:44;;;;;;;23.67;22.17;;;;;;;27.45;79.13;101507.69;5055561;28;20512;-73
2023/09/28 08:52:12;;;;;;;26.20;24.05;;;;;;;28.13;75.45;101509.63;5059096;28;20060;-73
2023/09/28 08:54:39;;;;;;;27.98;26.27;;;;;;;27.45;89.09;101511.22;5059350;28;20082;-74
2023/09/28 08:57:06;;;;;;;24.85;23.25;;;;;;;26.95;90.30;101505.47;5048736;28;20053;-73
2023/09/28 08:59:33;;;;;;;25.08;23.48;;;;;;;27.65;80.57;101499.09;5052386;28;20049;-73
2023/09/28 09:02:00;;;;;;;24.17;22.67;;;;;;;27.46;86.09;101501.91;5050715;28;20045;-73
2023/09/28 09:04:28;;;;;;;24.08;22.48;;;;;;;27.69;77.23;101505.56;5041681;28;20522;-73
2023/09/28 09:06:55;;;;;;;24.50;22.90;;;;;;;27.76;76.03;101491.53;5054528;28;20143;-73
2023/09/28 09:09:24;;;;;;;23.02;21.42;;;;;;;28.74;68.77;101491.06;5054435;28;20403;-73
2023/09/28 09:11:52;;;;;;;24.00;22.30;;;;;;;28.46;73.98;101488.44;5041015;28;20107;-74
2023/09/28 09:14:20;;;;;;;26.08;24.38;;;;;;;27.80;75.73;101490.63;5050803;28;20434;-73
2023/09/28 09:16:47;;;;;;;24.13;22.42;;;;;;;28.46;69.66;101485.72;5056243;28;20460;-72
2023/09/28 09:19:15;;;;;;;21.67;20.15;;;;;;;28.85;72.29;101489.72;5051888;28;20056;-73
2023/09/28 09:21:44;;;;;;;24.15;22.45;;;;;;;29.85;57.66;101489.28;5051112;28;20057;-73
2023/09/28 09:24:13;;;;;;;24.95;23.25;;;;;;;29.31;60.63;101488.56;5049020;28;20110;-73
2023/09/28 09:26:41;;;;;;;25.35;23.55;;;;;;;29.42;62.20;101489.91;5057282;28;20506;-74
2023/09/28 09:29:08;;;;;;;25.70;23.90;;;;;;;29.20;64.35;101488.03;5055416;28;20041;-73
2023/09/28 09:31:38;;;;;;;23.30;21.70;;;;;;;29.29;55.93;101484.53;5062543;28;20074;-73
2023/09/28 09:34:06;;;;;;;25.15;23.45;;;;;;;29.11;60.58;101484.44;5064422;28;20448;-73
2023/09/28 09:36:32;;;;;;;24.85;22.70;;;;;;;29.14;59.88;101478.34;5052469;28;20053;-73
2023/09/28 09:39:01;;;;;;;24.15;22.55;;;;;;;29.18;57.72;101476.59;5053155;28;20047;-73
2023/09/28 09:41:29;;;;;;;27.05;25.25;;;;;;;29.48;53.21;101479.66;5060312;28;20052;-73
2023/09/28 09:43:59;;;;;;;26.48;24.48;;;;;;;29.44;56.29;101479.47;5044893;28;20430;-73
2023/09/28 09:46:26;;;;;;;26.30;24.50;;;;;;;29.56;54.39;101465.19;5051964;28;20048;-73
2023/09/28 09:48:54;;;;;;;25.92;24.23;;;;;;;29.06;57.77;101465.44;5059540;28;20495;-73
2023/09/28 09:51:21;;;;;;;26.27;24.48;;;;;;;28.69;56.41;101464.69;5053119;28;20458;-73
2023/09/28 09:53:48;;;;;;;26.05;24.45;;;;;;;28.78;58.29;101470.22;5055005;28;20087;-73
2023/09/28 09:56:17;;;;;;;26.58;24.88;;;;;;;29.42;53.72;101459.81;5050370;28;20419;-73
2023/09/28 09:58:47;;;;;;;25.90;24.00;;;;;;;28.25;68.58;101451.75;5047453;28;20044;-73
2023/09/28 10:01:16;;;;;;;27.63;25.40;;;;;;;28.47;62.73;101438.16;5048476;28;20066;-73
2023/09/28 10:03:47;;;;;;;23.90;22.25;;;;;;;28.88;58.84;101447.28;5047944;28;20049;-73
2023/09/28 10:06:17;;;;;;;26.58;24.48;;;;;;;27.64;72.54;101443.72;5054390;28;20085;-73
2023/09/28 10:08:45;;;;;;;23.63;22.02;;;;;;;29.02;53.02;101441.75;5041364;28;20055;-73
2023/09/28 10:11:12;;;;;;;22.52;21.08;;;;;;;29.26;54.98;101438.66;5042320;28;20063;-73
2023/09/28 10:13:41;;;;;;;23.63;22.13;;;;;;;29.46;56.57;101435.38;5055124;28;20432;-73
2023/09/28 10:16:11;;;;;;;24.20;22.60;;;;;;;29.77;49.66;101427.09;5049140;28;20102;-73
2023/09/28 10:18:40;;;;;;;23.45;21.95;;;;;;;29.68;48.36;101426.28;5052098;28;20056;-74
2023/09/28 10:21:08;;;;;;;24.30;22.70;;;;;;;29.53;44.53;101419.28;5054509;28;20041;-73
2023/09/28 10:23:35;;;;;;;22.88;21.17;;;;;;;30.40;45.36;101408.50;5047764;28;20064;-73
2023/09/28 10:26:07;;;;;;;25.08;23.38;;;;;;;30.87;42.80;101410.56;5048261;28;20106;-74
2023/09/28 10:28:34;;;;;;;24.58;22.88;;;;;;;30.57;44.01;101413.16;5048581;28;20567;-74
2023/09/28 10:31:15;;;;;;;25.60;24.00;;;;;;;31.07;39.75;101396.13;5043838;28;20054;-74
2023/09/28 10:34:01;;;;;;;23.17;21.67;;;;;;;31.53;38.84;101401.91;5043537;28;20044;-75
2023/09/28 10:36:28;;;;;;;25.60;23.70;;;;;;;31.63;39.89;101407.03;5044290;28;20069;-74
2023/09/28 10:39:14;;;;;;;24.52;22.80;;;;;;;30.77;43.61;101401.53;5045809;28;20051;-73
2023/09/28 10:41:45;;;;;;;25.25;23.38;;;;;;;30.40;49.76;101408.50;5049257;28;20045;-73
2023/09/28 10:44:17;;;;;;;24.80;23.10;;;;;;;30.97;41.07;101388.25;5052986;28;20566;-73
2023/09/28 10:46:49;;;;;;;25.35;23.55;;;;;;;31.69;39.05;101386.47;5050184;28;20045;-73
2023/09/28 10:49:22;;;;;;;25.30;23.50;;;;;;;31.36;44.89;101383.59;5051078;28;20064;-73
2023/09/28 10:51:51;;;;;;;26.92;24.75;;;;;;;31.00;36.89;101385.66;5047483;28;20422;-73
2023/09/28 10:54:18;;;;;;;25.52;23.73;;;;;;;30.39;39.85;101384.97;5049970;28;20045;-73
2023/09/28 10:56:49;;;;;;;26.67;24.48;;;;;;;31.89;38.14;101382.13;5050027;28;20071;-73
2023/09/28 10:59:18;;;;;;;35.95;24.40;;;;;;;33.12;34.71;101371.59;5048783;28;20142;-73
2023/09/28 11:01:48;;;;;;;24.52;22.73;;;;;;;31.29;37.24;101377.78;5049862;28;20044;-73
2023/09/28 11:04:16;;;;;;;24.20;22.50;;;;;;;30.32;46.24;101374.53;5049953;28;20045;-74
2023/09/28 11:06:44;;;;;;;25.45;23.55;;;;;;;31.66;39.47;101370.69;5050616;28;20047;-73
2023/09/28 11:09:12;;;;;;;25.15;23.55;;;;;;;31.91;38.15;101369.69;5051182;28;20045;-73